Time;durP1;ratioP1;P1;durP2;ratioP2;P2;SDS_P1;SDS_P2;PMS_P1;PMS_P2;Temp;Humidity;BMP_temperature;BMP_pressure;BME280_temperature;BME280_humidity;BME280_pressure;Samples;Min_cycle;Max_cycle;Signal;HPM_P1;HPM_P2
2021/11/27 00:00:20;;;;;;;14.63;9.52;;;4.10;99.90;;;;;;5025240;28;20033;-89
2021/11/27 00:02:50;;;;;;;14.63;10.02;;;4.10;99.90;;;;;;5026524;28;20038;-89
2021/11/27 00:05:17;;;;;;;15.00;9.55;;;4.10;99.90;;;;;;5041843;28;20041;-89
2021/11/27 00:07:44;;;;;;;15.05;9.27;;;4.20;99.90;;;;;;5025245;28;20513;-90
2021/11/27 00:10:13;;;;;;;14.82;10.45;;;4.20;99.90;;;;;;5041496;28;20038;-89
2021/11/27 00:12:39;;;;;;;16.48;10.73;;;4.20;99.90;;;;;;5024958;28;20045;-90
2021/11/27 00:15:07;;;;;;;14.93;10.32;;;4.10;99.90;;;;;;5041139;28;20041;-89
2021/11/27 00:17:33;;;;;;;13.52;9.75;;;4.10;99.90;;;;;;5049196;28;20148;-89
2021/11/27 00:19:59;;;;;;;16.30;10.90;;;4.20;99.90;;;;;;5017031;28;20029;-89
2021/11/27 00:22:24;;;;;;;17.65;10.75;;;4.10;99.90;;;;;;5048971;28;20034;-89
2021/11/27 00:24:52;;;;;;;15.98;10.57;;;4.10;99.90;;;;;;5042450;28;20022;-90
2021/11/27 00:27:20;;;;;;;15.98;11.02;;;4.10;99.90;;;;;;5049152;28;20060;-89
2021/11/27 00:29:46;;;;;;;15.65;10.35;;;4.20;99.90;;;;;;5048705;28;20041;-89
2021/11/27 00:32:12;;;;;;;13.88;9.60;;;4.20;99.90;;;;;;5046520;28;20120;-89
2021/11/27 00:34:37;;;;;;;15.93;10.50;;;4.20;99.90;;;;;;5024600;28;20026;-88
2021/11/27 00:37:03;;;;;;;15.73;10.50;;;4.20;99.90;;;;;;5024675;28;20041;-89
2021/11/27 00:39:29;;;;;;;15.65;11.48;;;4.20;99.90;;;;;;5040648;28;20065;-89
2021/11/27 00:41:54;;;;;;;18.52;11.95;;;4.20;99.90;;;;;;5041010;28;20053;-88
2021/11/27 00:44:22;;;;;;;18.95;12.65;;;4.20;99.90;;;;;;5040762;28;20041;-89
2021/11/27 00:46:49;;;;;;;16.02;11.55;;;4.20;99.90;;;;;;5041140;28;20026;-89
2021/11/27 00:49:15;;;;;;;16.83;11.52;;;4.20;99.90;;;;;;5041028;28;20072;-88
2021/11/27 00:51:41;;;;;;;16.95;11.75;;;4.20;99.90;;;;;;5043929;28;20470;-88
2021/11/27 00:54:07;;;;;;;17.85;11.55;;;4.20;99.90;;;;;;5044811;28;20033;-89
2021/11/27 00:56:33;;;;;;;17.13;11.55;;;4.20;99.90;;;;;;5044552;28;20030;-89
2021/11/27 00:58:59;;;;;;;17.27;11.68;;;4.20;99.90;;;;;;5052805;28;20044;-88
2021/11/27 01:01:31;;;;;;;16.02;11.95;;;4.20;99.90;;;;;;5053208;28;20053;-89
2021/11/27 01:03:57;;;;;;;17.52;11.77;;;4.20;99.90;;;;;;5046915;28;20022;-90
2021/11/27 01:06:24;;;;;;;18.73;13.05;;;4.20;99.90;;;;;;5043821;28;20053;-89
2021/11/27 01:08:51;;;;;;;20.40;12.50;;;4.20;99.90;;;;;;5043938;28;20049;-89
2021/11/27 01:11:23;;;;;;;21.80;13.13;;;4.20;99.90;;;;;;5027710;28;20033;-89
2021/11/27 01:13:54;;;;;;;18.40;11.68;;;4.20;99.90;;;;;;5027912;28;20040;-89
2021/11/27 01:16:23;;;;;;;19.52;13.10;;;4.20;99.90;;;;;;5028105;28;20486;-89
2021/11/27 01:18:50;;;;;;;16.67;11.73;;;4.20;99.90;;;;;;5027721;28;20038;-89
2021/11/27 01:21:18;;;;;;;17.73;12.15;;;4.20;99.90;;;;;;5028061;28;20040;-89
2021/11/27 01:23:46;;;;;;;19.10;12.48;;;4.20;99.90;;;;;;5027808;28;20029;-89
2021/11/27 01:26:12;;;;;;;16.25;11.27;;;4.20;99.90;;;;;;5044344;28;20043;-89
2021/11/27 01:28:38;;;;;;;19.80;13.65;;;4.20;99.90;;;;;;5027750;28;20145;-89
2021/11/27 01:31:04;;;;;;;18.17;12.57;;;4.20;99.90;;;;;;5027828;28;20036;-89
2021/11/27 01:33:31;;;;;;;19.52;12.68;;;4.20;99.90;;;;;;5027742;28;20057;-89
2021/11/27 01:35:59;;;;;;;19.80;12.25;;;4.20;99.90;;;;;;5027797;28;20543;-88
2021/11/27 01:38:25;;;;;;;19.75;11.80;;;4.20;99.90;;;;;;5027688;28;20049;-89
2021/11/27 01:40:53;;;;;;;20.10;13.30;;;4.20;99.90;;;;;;5027487;28;20033;-88
2021/11/27 01:43:20;;;;;;;16.83;11.52;;;4.20;99.90;;;;;;5044043;28;20060;-88
2021/11/27 01:45:48;;;;;;;19.38;12.70;;;4.20;99.90;;;;;;5011337;28;20145;-88
2021/11/27 01:48:16;;;;;;;18.92;12.70;;;4.20;99.90;;;;;;5027361;28;20072;-89
2021/11/27 01:50:49;;;;;;;18.00;11.15;;;4.20;99.90;;;;;;5024092;28;20023;-88
2021/11/27 01:53:15;;;;;;;17.58;11.32;;;4.20;99.90;;;;;;5024275;28;20039;-90
2021/11/27 01:55:41;;;;;;;19.80;12.68;;;4.20;99.90;;;;;;5007722;28;20032;-89
2021/11/27 01:58:08;;;;;;;20.63;12.90;;;4.20;99.90;;;;;;5007518;28;20030;-88
2021/11/27 02:00:39;;;;;;;18.63;12.57;;;4.20;99.90;;;;;;5007165;28;20032;-89
2021/11/27 02:03:05;;;;;;;17.42;11.50;;;4.20;99.90;;;;;;5008723;28;20026;-88
2021/11/27 02:05:54;;;;;;;19.02;11.25;;;4.20;99.90;;;;;;5007570;28;20030;-89
2021/11/27 02:08:20;;;;;;;16.92;10.75;;;4.20;99.90;;;;;;5007267;28;20138;-89
2021/11/27 02:10:46;;;;;;;17.38;11.13;;;4.20;99.90;;;;;;5023598;28;20032;-89
2021/11/27 02:13:11;;;;;;;17.08;10.25;;;4.20;99.90;;;;;;5027001;28;20486;-89
2021/11/27 02:15:40;;;;;;;14.68;9.38;;;4.20;99.90;;;;;;5026909;28;20026;-89
2021/11/27 02:18:06;;;;;;;14.45;9.32;;;4.10;99.90;;;;;;5026872;28;20050;-88
2021/11/27 02:20:35;;;;;;;12.70;8.00;;;4.20;99.90;;;;;;5026986;28;20037;-89
2021/11/27 02:23:01;;;;;;;13.40;7.97;;;4.10;99.90;;;;;;5010532;28;20026;-89
2021/11/27 02:25:27;;;;;;;10.10;6.25;;;4.10;99.90;;;;;;5026842;28;20117;-90
2021/11/27 02:27:53;;;;;;;10.60;6.78;;;4.10;99.90;;;;;;5043244;28;20049;-90
2021/11/27 02:30:21;;;;;;;10.52;5.97;;;4.10;99.90;;;;;;5026868;28;20213;-90
2021/11/27 02:32:48;;;;;;;9.68;5.85;;;4.10;99.90;;;;;;5026722;28;20544;-90
2021/11/27 02:35:14;;;;;;;9.20;5.18;;;4.10;99.90;;;;;;5026410;28;20037;-90
2021/11/27 02:37:40;;;;;;;9.38;5.82;;;4.10;99.90;;;;;;5026667;28;20038;-89
2021/11/27 02:40:26;;;;;;;9.38;6.10;;;4.00;99.90;;;;;;5026222;28;20037;-89
2021/11/27 02:42:53;;;;;;;9.00;5.80;;;4.00;99.90;;;;;;4969977;28;20078;-89
2021/11/27 02:45:19;;;;;;;8.15;5.15;;;4.00;99.90;;;;;;4986182;28;20114;-89
2021/11/27 02:47:44;;;;;;;11.10;6.05;;;4.00;99.90;;;;;;4970125;28;20081;-89
2021/11/27 02:50:13;;;;;;;8.60;4.82;;;4.10;99.90;;;;;;4969903;28;20104;-89
2021/11/27 02:52:40;;;;;;;10.90;7.05;;;4.10;99.90;;;;;;4970242;28;20039;-89
2021/11/27 02:55:06;;;;;;;15.50;8.70;;;4.10;99.90;;;;;;4969782;28;20070;-89
2021/11/27 02:57:33;;;;;;;17.35;9.00;;;4.10;99.90;;;;;;4970236;28;20066;-89
2021/11/27 03:00:00;;;;;;;16.17;9.50;;;4.10;99.90;;;;;;4969993;28;20057;-89
2021/11/27 03:02:32;;;;;;;14.05;8.00;;;4.10;99.90;;;;;;4985993;28;20026;-89
2021/11/27 03:04:58;;;;;;;16.80;8.43;;;4.10;99.90;;;;;;4969934;28;20042;-89
2021/11/27 03:07:24;;;;;;;13.38;7.30;;;4.00;99.90;;;;;;4969593;28;20535;-89
2021/11/27 03:09:49;;;;;;;11.95;5.85;;;3.90;99.90;;;;;;4978131;28;20097;-89
2021/11/27 03:12:16;;;;;;;12.80;6.00;;;3.80;99.90;;;;;;4972593;28;20101;-89
2021/11/27 03:14:41;;;;;;;11.18;3.90;;;3.70;99.90;;;;;;4988414;28;20030;-88
2021/11/27 03:17:07;;;;;;;4.78;1.83;;;3.50;99.90;;;;;;4988944;28;20033;-88
2021/11/27 03:19:37;;;;;;;2.22;0.90;;;3.40;99.90;;;;;;4989233;28;20380;-87
2021/11/27 03:22:02;;;;;;;3.03;1.20;;;3.40;99.90;;;;;;5006210;28;20029;-88
2021/11/27 03:24:33;;;;;;;3.13;0.70;;;3.30;99.90;;;;;;5006262;28;20049;-88
2021/11/27 03:26:59;;;;;;;3.40;0.50;;;3.20;99.90;;;;;;5005908;28;20031;-88
2021/11/27 03:29:25;;;;;;;2.55;0.65;;;3.20;99.90;;;;;;5006049;28;20545;-89
2021/11/27 03:31:58;;;;;;;3.00;0.60;;;3.20;99.90;;;;;;5005881;28;20026;-89
2021/11/27 03:34:36;;;;;;;3.17;0.60;;;3.20;99.90;;;;;;5006043;28;20104;-88
2021/11/27 03:37:03;;;;;;;2.40;0.50;;;3.20;99.90;;;;;;5022382;28;20041;-88
2021/11/27 03:39:29;;;;;;;2.22;0.47;;;3.10;99.90;;;;;;5005488;28;20487;-89
2021/11/27 03:41:58;;;;;;;1.80;0.73;;;3.10;99.90;;;;;;5021997;28;20072;-88
2021/11/27 03:44:24;;;;;;;1.83;0.30;;;3.00;99.90;;;;;;4989480;28;20037;-88
2021/11/27 03:46:50;;;;;;;1.65;0.50;;;3.00;99.90;;;;;;5021964;28;20533;-88
2021/11/27 03:49:21;;;;;;;3.65;0.40;;;2.90;99.90;;;;;;5022214;28;20054;-88
2021/11/27 03:51:49;;;;;;;2.30;0.40;;;2.90;99.90;;;;;;5020874;28;20026;-88
2021/11/27 03:54:15;;;;;;;1.20;0.60;;;2.80;99.90;;;;;;5025362;28;20033;-88
2021/11/27 03:56:41;;;;;;;2.17;0.40;;;2.80;99.90;;;;;;5025373;28;20038;-88
2021/11/27 03:59:06;;;;;;;3.67;0.30;;;2.80;99.90;;;;;;5025289;28;20041;-88
2021/11/27 04:01:33;;;;;;;1.10;0.30;;;2.60;99.90;;;;;;5025185;28;20034;-88
2021/11/27 04:04:00;;;;;;;1.65;0.45;;;2.60;99.90;;;;;;5025137;28;20025;-88
2021/11/27 04:06:27;;;;;;;2.88;0.50;;;2.60;99.90;;;;;;5025160;28;20026;-89
2021/11/27 04:08:56;;;;;;;2.22;0.50;;;2.60;99.90;;;;;;5025240;28;20101;-89
2021/11/27 04:11:23;;;;;;;3.92;0.50;;;2.50;99.90;;;;;;5025189;28;20026;-87
2021/11/27 04:13:49;;;;;;;2.15;0.50;;;2.50;99.90;;;;;;5025260;28;20030;-88
2021/11/27 04:16:15;;;;;;;3.25;0.50;;;2.40;99.90;;;;;;5025094;28;20022;-88
2021/11/27 04:18:41;;;;;;;2.88;0.40;;;2.40;99.90;;;;;;5025212;28;20094;-88
2021/11/27 04:21:07;;;;;;;2.63;0.50;;;2.30;99.90;;;;;;5025090;28;20030;-88
2021/11/27 04:23:34;;;;;;;1.08;0.40;;;2.30;99.90;;;;;;5008739;28;20553;-88
2021/11/27 04:26:04;;;;;;;1.90;0.40;;;2.20;99.90;;;;;;5029254;28;20041;-88
2021/11/27 04:28:30;;;;;;;1.35;0.40;;;2.20;99.90;;;;;;5030125;28;20101;-88
2021/11/27 04:30:56;;;;;;;3.00;0.40;;;2.10;99.90;;;;;;5030600;28;20053;-88
2021/11/27 04:33:22;;;;;;;0.80;0.30;;;2.10;99.90;;;;;;5047180;28;20034;-88
2021/11/27 04:35:51;;;;;;;3.63;0.35;;;2.00;99.90;;;;;;5030142;28;20026;-87
2021/11/27 04:38:22;;;;;;;1.00;0.52;;;2.00;99.90;;;;;;5044879;28;20057;-88
2021/11/27 04:40:48;;;;;;;1.50;0.30;;;1.90;99.90;;;;;;5028739;28;20034;-87
2021/11/27 04:43:17;;;;;;;3.25;0.22;;;2.00;99.90;;;;;;5043652;28;20056;-87
2021/11/27 04:45:45;;;;;;;0.75;0.20;;;1.90;99.90;;;;;;5028676;28;20026;-88
2021/11/27 04:48:11;;;;;;;0.82;0.20;;;1.80;99.90;;;;;;5028364;28;20044;-89
2021/11/27 04:50:39;;;;;;;1.50;0.20;;;1.80;99.90;;;;;;5028849;28;20075;-88
2021/11/27 04:53:10;;;;;;;2.17;0.30;;;1.70;99.90;;;;;;5044602;28;20048;-88
2021/11/27 04:55:36;;;;;;;2.03;0.20;;;1.80;99.90;;;;;;5028467;28;20036;-89
2021/11/27 04:58:05;;;;;;;0.65;0.20;;;1.80;99.90;;;;;;5028354;28;20034;-88
2021/11/27 05:00:44;;;;;;;0.60;0.10;;;1.70;99.90;;;;;;5028413;28;20061;-88
2021/11/27 05:03:13;;;;;;;0.73;0.20;;;1.70;99.90;;;;;;5028423;28;20164;-89
2021/11/27 05:05:38;;;;;;;0.65;0.20;;;1.70;99.90;;;;;;5028511;28;20538;-89
2021/11/27 05:08:05;;;;;;;1.20;0.40;;;1.70;99.90;;;;;;5028267;28;20080;-88
2021/11/27 05:10:33;;;;;;;3.95;0.43;;;1.70;99.90;;;;;;5024854;28;20027;-89
2021/11/27 05:12:58;;;;;;;2.85;0.32;;;1.70;99.90;;;;;;4992179;28;20061;-88
2021/11/27 05:15:25;;;;;;;4.32;0.50;;;1.70;99.90;;;;;;4992647;28;20049;-88
2021/11/27 05:17:55;;;;;;;4.63;0.93;;;1.70;99.90;;;;;;4992531;28;20062;-88
2021/11/27 05:20:31;;;;;;;3.10;0.60;;;1.70;99.90;;;;;;4993684;28;20090;-87
2021/11/27 05:22:57;;;;;;;5.60;1.85;;;1.80;99.90;;;;;;4992022;28;20030;-87
2021/11/27 05:25:23;;;;;;;4.95;1.52;;;1.70;99.90;;;;;;4991979;28;20036;-89
2021/11/27 05:28:07;;;;;;;4.57;1.60;;;1.60;99.90;;;;;;5009602;28;20053;-88
2021/11/27 05:30:40;;;;;;;6.18;1.63;;;1.60;99.90;;;;;;5008237;28;20324;-88
2021/11/27 05:33:10;;;;;;;4.15;1.10;;;1.70;99.90;;;;;;4991789;28;20273;-88
2021/11/27 05:35:45;;;;;;;3.83;1.05;;;1.70;99.90;;;;;;4992190;28;20026;-88
2021/11/27 05:38:14;;;;;;;3.13;0.82;;;1.70;99.90;;;;;;4992069;28;20030;-88
2021/11/27 05:43:31;;;;;;;2.22;0.60;;;1.60;99.90;;;;;;4949621;29;20072;-87
2021/11/27 05:46:00;;;;;;;3.83;1.00;;;1.60;99.90;;;;;;4950227;29;20123;-87
2021/11/27 05:48:29;;;;;;;3.38;0.80;;;1.60;99.90;;;;;;4949907;29;20112;-87
2021/11/27 05:51:14;;;;;;;2.80;0.80;;;1.60;99.90;;;;;;4950325;29;20498;-87
2021/11/27 05:53:40;;;;;;;2.88;0.50;;;1.60;99.90;;;;;;4947221;29;20040;-89
2021/11/27 05:56:06;;;;;;;2.20;0.70;;;1.60;99.90;;;;;;4949980;29;20039;-88
2021/11/27 05:58:32;;;;;;;1.65;0.52;;;1.60;99.90;;;;;;4949832;29;20130;-89
2021/11/27 06:01:03;;;;;;;1.88;0.50;;;1.50;99.90;;;;;;4949904;29;20032;-88
2021/11/27 06:03:29;;;;;;;2.42;0.65;;;1.40;99.90;;;;;;4949725;29;20031;-88
2021/11/27 06:05:55;;;;;;;2.63;0.80;;;1.40;99.90;;;;;;4949969;29;20046;-87
2021/11/27 06:08:23;;;;;;;3.58;0.80;;;1.40;99.90;;;;;;4949316;29;20043;-88
2021/11/27 06:10:49;;;;;;;2.75;0.90;;;1.40;99.90;;;;;;4949398;29;20040;-88
2021/11/27 06:13:15;;;;;;;3.78;1.20;;;1.40;99.90;;;;;;4933884;29;20126;-87
2021/11/27 06:15:40;;;;;;;3.35;0.85;;;1.40;99.90;;;;;;4933805;29;20070;-88
2021/11/27 06:18:06;;;;;;;4.00;1.42;;;1.40;99.90;;;;;;4933854;29;20043;-87
2021/11/27 06:20:32;;;;;;;5.03;1.60;;;1.40;99.90;;;;;;4933301;29;20031;-88
2021/11/27 06:23:01;;;;;;;5.80;1.83;;;1.30;99.90;;;;;;4933247;29;20036;-87
2021/11/27 06:25:27;;;;;;;3.47;1.27;;;1.40;99.90;;;;;;4933424;29;20071;-87
2021/11/27 06:27:54;;;;;;;5.40;1.70;;;1.30;99.90;;;;;;4949145;29;20036;-88
2021/11/27 06:30:20;;;;;;;3.40;1.02;;;1.40;99.90;;;;;;4933379;29;20035;-88
2021/11/27 06:32:46;;;;;;;2.80;0.70;;;1.30;99.90;;;;;;4933285;29;20483;-87
2021/11/27 06:35:12;;;;;;;2.75;0.70;;;1.40;99.90;;;;;;4932879;29;20055;-86
2021/11/27 06:37:37;;;;;;;3.90;1.05;;;1.30;99.90;;;;;;4948867;29;20036;-87
2021/11/27 06:40:23;;;;;;;2.40;0.70;;;1.30;99.90;;;;;;4933017;29;20031;-87
2021/11/27 06:43:13;;;;;;;3.65;1.20;;;1.30;99.90;;;;;;4928536;29;20052;-88
2021/11/27 06:45:57;;;;;;;2.65;0.77;;;1.30;99.90;;;;;;4928633;29;20033;-88
2021/11/27 06:48:23;;;;;;;2.85;1.00;;;1.30;99.90;;;;;;4928400;29;20048;-88
2021/11/27 06:50:49;;;;;;;2.65;1.00;;;1.30;99.90;;;;;;4928456;29;20081;-88
2021/11/27 06:53:16;;;;;;;3.22;0.88;;;1.40;99.90;;;;;;4913001;29;20044;-87
2021/11/27 06:55:41;;;;;;;2.53;0.80;;;1.30;99.90;;;;;;4912462;29;20592;-88
2021/11/27 06:58:07;;;;;;;2.65;0.70;;;1.30;99.90;;;;;;4928681;29;20068;-88
2021/11/27 07:00:34;;;;;;;2.67;0.70;;;1.40;99.90;;;;;;4928210;29;20047;-87
2021/11/27 07:03:32;;;;;;;3.45;0.70;;;1.50;99.90;;;;;;4928479;29;20043;-88
2021/11/27 07:06:36;;;;;;;2.75;1.17;;;1.40;99.90;;;;;;4909628;29;20067;-87
2021/11/27 07:09:02;;;;;;;2.63;0.77;;;1.40;99.90;;;;;;4893712;29;20108;-88
2021/11/27 07:11:47;;;;;;;1.92;0.50;;;1.40;99.90;;;;;;4920775;29;20566;-88
2021/11/27 07:14:13;;;;;;;2.65;0.57;;;1.40;99.90;;;;;;4928054;29;20104;-88
2021/11/27 07:16:39;;;;;;;3.35;0.50;;;1.40;99.90;;;;;;4928050;29;20131;-87
2021/11/27 07:19:04;;;;;;;2.47;0.70;;;1.50;99.90;;;;;;4931618;29;20050;-88
2021/11/27 07:21:30;;;;;;;2.15;0.50;;;1.40;99.90;;;;;;4932201;29;20067;-87
2021/11/27 07:23:56;;;;;;;1.40;0.40;;;1.50;99.90;;;;;;4932417;29;20313;-88
2021/11/27 07:26:22;;;;;;;1.85;0.47;;;1.40;99.90;;;;;;4932126;29;20079;-88
2021/11/27 07:28:58;;;;;;;1.70;0.50;;;1.50;99.90;;;;;;4947690;29;20103;-88
2021/11/27 07:31:24;;;;;;;3.22;0.80;;;1.40;99.90;;;;;;4947974;29;20054;-88
2021/11/27 07:33:49;;;;;;;3.80;1.10;;;1.40;99.90;;;;;;4932182;29;20103;-88
2021/11/27 07:36:15;;;;;;;3.50;1.05;;;1.40;99.90;;;;;;4948279;29;20052;-88
2021/11/27 07:38:41;;;;;;;3.22;0.88;;;1.40;99.90;;;;;;4948353;29;20035;-88
2021/11/27 07:41:08;;;;;;;3.67;0.88;;;1.40;99.90;;;;;;4947965;29;20444;-88
2021/11/27 07:43:34;;;;;;;3.05;0.80;;;1.50;99.90;;;;;;4915727;29;20083;-88
2021/11/27 07:46:04;;;;;;;4.47;1.50;;;1.40;99.90;;;;;;4928116;29;20035;-88
2021/11/27 07:48:49;;;;;;;4.90;1.60;;;1.50;99.90;;;;;;4928322;29;20111;-88
2021/11/27 07:51:33;;;;;;;4.18;1.55;;;1.60;99.90;;;;;;4927739;29;20046;-88
2021/11/27 07:54:01;;;;;;;5.80;2.28;;;1.60;99.90;;;;;;4946848;29;20046;-89
2021/11/27 07:56:27;;;;;;;6.03;2.95;;;1.60;99.90;;;;;;4930893;29;20102;-89
2021/11/27 07:58:53;;;;;;;8.38;3.92;;;1.60;99.90;;;;;;4930709;29;20046;-88
2021/11/27 08:01:19;;;;;;;8.15;3.58;;;1.60;99.90;;;;;;4931051;29;20212;-88
2021/11/27 08:03:44;;;;;;;6.50;2.53;;;1.60;99.90;;;;;;4930963;29;20094;-89
2021/11/27 08:06:10;;;;;;;6.93;3.42;;;1.70;99.90;;;;;;4931037;29;20456;-88
2021/11/27 08:08:37;;;;;;;8.00;2.88;;;1.70;99.90;;;;;;4931073;29;20108;-89
2021/11/27 08:11:02;;;;;;;7.03;3.22;;;1.70;99.90;;;;;;4930835;29;20086;-89
2021/11/27 08:13:28;;;;;;;12.15;3.72;;;1.70;99.90;;;;;;4930873;29;20035;-89
2021/11/27 08:15:54;;;;;;;6.40;2.75;;;1.80;99.90;;;;;;4946934;29;20059;-89
2021/11/27 08:18:20;;;;;;;9.88;4.20;;;1.80;99.90;;;;;;4946756;29;20040;-89
2021/11/27 08:20:49;;;;;;;8.77;3.63;;;1.80;99.90;;;;;;4946817;29;20119;-90
2021/11/27 08:23:18;;;;;;;11.40;4.70;;;1.80;99.90;;;;;;4946752;29;20091;-88
2021/11/27 08:25:45;;;;;;;9.00;3.30;;;1.80;99.90;;;;;;4946780;29;20035;-89
2021/11/27 08:28:11;;;;;;;9.23;4.40;;;1.80;99.90;;;;;;4946288;29;20054;-89
2021/11/27 08:30:37;;;;;;;9.48;4.07;;;1.70;99.90;;;;;;4946664;29;20032;-89
2021/11/27 08:33:06;;;;;;;7.95;3.70;;;1.60;99.90;;;;;;4946661;29;20043;-89
2021/11/27 08:35:31;;;;;;;7.32;3.10;;;1.70;99.90;;;;;;4946872;29;20032;-88
2021/11/27 08:37:58;;;;;;;5.72;2.40;;;1.70;99.90;;;;;;4946568;29;20031;-89
2021/11/27 08:40:24;;;;;;;5.80;2.85;;;1.60;99.90;;;;;;4946461;29;20046;-88
2021/11/27 08:42:49;;;;;;;5.22;1.75;;;1.60;99.90;;;;;;4946009;29;20043;-89
2021/11/27 08:45:16;;;;;;;4.70;1.27;;;1.70;99.90;;;;;;4930551;29;20122;-89
2021/11/27 08:47:42;;;;;;;4.30;1.73;;;1.60;99.90;;;;;;4946282;29;20103;-88
2021/11/27 08:50:09;;;;;;;4.88;1.38;;;1.60;99.90;;;;;;4946246;29;20040;-87
2021/11/27 08:52:35;;;;;;;5.63;1.63;;;1.60;99.90;;;;;;4930382;29;20073;-89
2021/11/27 08:55:01;;;;;;;4.22;1.35;;;1.70;99.90;;;;;;4930435;29;20126;-89
2021/11/27 08:57:27;;;;;;;4.10;1.27;;;1.70;99.90;;;;;;4945734;29;20063;-89
2021/11/27 08:59:52;;;;;;;4.13;1.38;;;1.70;99.90;;;;;;4924114;29;20043;-88
2021/11/27 09:02:19;;;;;;;2.63;0.90;;;1.80;99.90;;;;;;4927349;29;20079;-89
2021/11/27 09:04:45;;;;;;;3.22;1.20;;;1.80;99.90;;;;;;4927238;29;20036;-89
2021/11/27 09:07:11;;;;;;;4.05;1.52;;;1.70;99.90;;;;;;4927190;29;20032;-89
2021/11/27 09:09:37;;;;;;;4.93;1.77;;;1.70;99.90;;;;;;4933851;29;20036;-89
2021/11/27 09:12:04;;;;;;;4.53;1.70;;;1.80;99.90;;;;;;4948187;29;20135;-89
2021/11/27 09:14:30;;;;;;;3.88;1.08;;;1.80;99.90;;;;;;4949775;29;20035;-89
2021/11/27 09:16:55;;;;;;;4.68;1.67;;;1.90;99.90;;;;;;4949770;29;20031;-89
2021/11/27 09:19:21;;;;;;;2.97;0.82;;;2.00;99.90;;;;;;4949856;29;20039;-89
2021/11/27 09:21:49;;;;;;;2.60;0.82;;;2.10;99.90;;;;;;4933736;29;20060;-89
2021/11/27 09:24:15;;;;;;;2.35;0.80;;;2.10;99.90;;;;;;4949806;29;20112;-89
2021/11/27 09:26:41;;;;;;;3.72;1.15;;;2.10;99.90;;;;;;4949474;29;20036;-89
2021/11/27 09:29:08;;;;;;;3.85;0.75;;;2.20;99.90;;;;;;4921641;29;20063;-88
2021/11/27 09:31:41;;;;;;;2.70;0.93;;;2.20;99.90;;;;;;4953038;29;20036;-87
2021/11/27 09:34:08;;;;;;;2.90;0.88;;;2.10;99.90;;;;;;4948776;29;20059;-88
2021/11/27 09:36:34;;;;;;;2.33;0.65;;;2.20;99.90;;;;;;4952826;29;20031;-88
2021/11/27 09:39:00;;;;;;;3.67;1.02;;;2.20;99.90;;;;;;4951649;29;20055;-87
